Time;durP1;ratioP1;P1;durP2;ratioP2;P2;SDS_P1;SDS_P2;PMS_P1;PMS_P2;Temp;Humidity;BMP_temperature;BMP_pressure;BME280_temperature;BME280_humidity;BME280_pressure;Samples;Min_cycle;Max_cycle;Signal;HPM_P1;HPM_P2
2022/04/19 00:00:49;;;;;;;11.02;8.40;;;;;;;11.15;57.26;101654.56;5055912;28;20052;-82
2022/04/19 00:03:15;;;;;;;11.98;9.10;;;;;;;11.12;57.18;101642.44;5042477;28;20325;-82
2022/04/19 00:05:41;;;;;;;9.75;8.75;;;;;;;11.10;57.08;101646.00;5044735;28;20114;-82
2022/04/19 00:08:08;;;;;;;10.98;9.65;;;;;;;11.05;57.32;101632.19;5062566;28;20039;-82
2022/04/19 00:10:34;;;;;;;10.82;9.10;;;;;;;11.03;57.68;101640.09;5062145;28;20059;-82
2022/04/19 00:13:01;;;;;;;13.60;9.07;;;;;;;11.01;57.62;101636.66;5067944;28;20032;-82
2022/04/19 00:15:28;;;;;;;10.15;9.00;;;;;;;11.00;57.47;101640.16;5072238;28;20024;-82
2022/04/19 00:17:58;;;;;;;10.98;8.77;;;;;;;10.99;57.64;101634.97;5090927;28;20219;-82
2022/04/19 00:20:24;;;;;;;11.52;9.15;;;;;;;10.97;57.79;101640.28;5076487;28;20028;-82
2022/04/19 00:22:50;;;;;;;11.32;8.68;;;;;;;10.94;57.94;101638.59;5053961;28;20033;-82
2022/04/19 00:25:16;;;;;;;10.13;9.07;;;;;;;10.92;58.05;101635.16;5062080;28;20386;-82
2022/04/19 00:27:42;;;;;;;11.60;8.75;;;;;;;10.90;58.27;101630.88;5078702;28;20068;-82
2022/04/19 00:30:08;;;;;;;11.15;9.02;;;;;;;10.88;58.24;101635.31;5061766;28;20032;-82
2022/04/19 00:32:34;;;;;;;11.50;8.98;;;;;;;10.85;58.27;101631.00;5060866;28;20360;-82
2022/04/19 00:35:02;;;;;;;9.77;8.65;;;;;;;10.82;58.62;101631.06;5061026;28;20056;-82
2022/04/19 00:37:27;;;;;;;15.63;9.13;;;;;;;10.80;58.38;101621.56;5060869;28;20040;-82
2022/04/19 00:39:53;;;;;;;11.27;9.10;;;;;;;10.77;58.48;101625.13;5079279;28;20032;-82
2022/04/19 00:42:19;;;;;;;10.27;8.90;;;;;;;10.76;58.42;101620.78;5056383;28;20037;-82
2022/04/19 00:44:44;;;;;;;10.98;9.27;;;;;;;10.73;58.61;101624.38;5064526;28;20040;-82
2022/04/19 00:47:10;;;;;;;11.02;9.60;;;;;;;10.71;58.88;101613.09;5079002;28;20111;-82
2022/04/19 00:49:43;;;;;;;10.02;8.82;;;;;;;10.70;58.76;101615.75;5060917;28;20082;-82
2022/04/19 00:52:10;;;;;;;10.88;9.48;;;;;;;10.68;58.89;101614.94;5073672;28;20032;-82
2022/04/19 00:54:36;;;;;;;10.90;8.95;;;;;;;10.65;59.07;101618.47;5065879;28;20041;-82
2022/04/19 00:57:03;;;;;;;11.38;9.88;;;;;;;10.63;59.08;101609.81;5043471;28;20129;-82
2022/04/19 00:59:29;;;;;;;10.35;9.32;;;;;;;10.62;59.25;101604.59;5027710;28;20033;-82
2022/04/19 01:04:58;;;;;;;11.75;9.18;;;;;;;10.57;59.24;101605.59;5049336;28;20103;-82
2022/04/19 01:07:23;;;;;;;12.13;9.95;;;;;;;10.56;59.39;101605.66;5033106;28;20036;-82
2022/04/19 01:09:49;;;;;;;10.88;9.32;;;;;;;10.54;59.35;101600.44;5077852;28;20044;-82
2022/04/19 01:15:06;;;;;;;10.90;9.52;;;;;;;10.50;59.44;101601.44;5078649;28;20096;-82
2022/04/19 01:17:39;;;;;;;11.52;9.18;;;;;;;10.50;59.50;101608.44;5059626;28;20108;-82
2022/04/19 01:20:06;;;;;;;11.10;9.57;;;;;;;10.48;59.60;101600.63;5058713;28;20340;-82
2022/04/19 01:22:39;;;;;;;11.85;10.10;;;;;;;10.46;59.61;101597.19;5052185;28;20216;-82
2022/04/19 01:25:05;;;;;;;11.30;9.88;;;;;;;10.44;59.70;101599.00;5077937;28;20290;-82
2022/04/19 01:27:31;;;;;;;11.80;9.95;;;;;;;10.45;59.55;101594.63;5077037;28;20107;-82
2022/04/19 01:30:00;;;;;;;11.50;10.18;;;;;;;10.42;59.77;101595.53;5077373;28;20056;-82
2022/04/19 01:32:30;;;;;;;13.43;9.80;;;;;;;10.41;59.98;101598.22;5046067;28;20033;-82
2022/04/19 01:35:28;;;;;;;14.45;10.73;;;;;;;10.39;60.06;101595.66;5036306;28;20097;-82
2022/04/19 01:37:53;;;;;;;13.53;10.30;;;;;;;10.36;59.96;101598.34;5017545;28;20071;-82
2022/04/19 01:40:19;;;;;;;11.70;10.50;;;;;;;10.36;59.80;101603.59;5056787;28;20283;-82
2022/04/19 01:42:52;;;;;;;12.90;10.38;;;;;;;10.34;60.02;101602.78;5056463;28;20047;-82
2022/04/19 01:45:19;;;;;;;12.13;10.30;;;;;;;10.31;60.07;101593.22;5056728;28;20264;-82
2022/04/19 01:47:45;;;;;;;13.63;10.60;;;;;;;10.31;60.47;101598.47;5047779;28;20033;-82
2022/04/19 01:50:13;;;;;;;13.45;9.77;;;;;;;10.29;60.61;101591.53;5055279;28;20496;-82
2022/04/19 01:52:39;;;;;;;13.23;10.35;;;;;;;10.27;60.37;101590.72;5039709;28;20036;-82
2022/04/19 01:55:07;;;;;;;11.45;9.90;;;;;;;10.25;60.59;101579.44;5057698;28;20122;-82
2022/04/19 01:57:33;;;;;;;11.77;10.48;;;;;;;10.25;60.61;101585.50;5055510;28;20600;-82
2022/04/19 01:59:59;;;;;;;11.63;10.30;;;;;;;10.23;60.96;101587.31;5022756;28;20053;-82
2022/04/19 02:02:24;;;;;;;14.18;10.98;;;;;;;10.21;61.16;101581.28;5052172;28;20043;-82
2022/04/19 02:04:53;;;;;;;12.23;10.30;;;;;;;10.20;60.93;101579.53;5056194;28;20040;-82
2022/04/19 02:07:18;;;;;;;13.53;10.73;;;;;;;10.19;61.27;101586.53;5056619;28;20032;-82
2022/04/19 02:09:43;;;;;;;13.15;10.73;;;;;;;10.18;61.24;101579.56;5055685;28;20276;-81
2022/04/19 02:12:09;;;;;;;12.85;10.38;;;;;;;10.16;61.11;101581.38;5055403;28;20029;-82
2022/04/19 02:14:35;;;;;;;12.63;10.55;;;;;;;10.14;61.70;101583.19;5056218;28;20078;-82
2022/04/19 02:17:01;;;;;;;12.07;10.77;;;;;;;10.13;61.91;101584.09;5056116;28;20225;-82
2022/04/19 02:19:26;;;;;;;13.27;11.13;;;;;;;10.11;62.08;101577.16;5055051;28;20036;-82
2022/04/19 02:21:52;;;;;;;12.32;11.02;;;;;;;10.11;62.02;101579.78;5050062;28;20395;-82
2022/04/19 02:24:17;;;;;;;14.15;11.00;;;;;;;10.11;62.04;101574.56;5038846;28;20025;-82
2022/04/19 02:26:43;;;;;;;11.27;9.95;;;;;;;10.10;62.07;101578.94;5055655;28;20041;-82
2022/04/19 02:29:08;;;;;;;12.93;11.63;;;;;;;10.09;62.19;101577.22;5056179;28;20147;-82
2022/04/19 02:31:33;;;;;;;14.65;11.40;;;;;;;10.08;62.62;101580.75;5042462;28;20041;-82
2022/04/19 02:33:59;;;;;;;14.80;11.40;;;;;;;10.08;62.53;101577.28;5034734;28;20045;-82
2022/04/19 02:36:25;;;;;;;13.18;10.90;;;;;;;10.07;62.55;101572.94;5074763;28;20040;-81
2022/04/19 02:38:51;;;;;;;12.35;11.05;;;;;;;10.06;62.68;101574.69;5071733;28;20328;-80
2022/04/19 02:41:16;;;;;;;13.98;11.48;;;;;;;10.05;62.83;101580.81;5058758;28;20088;-80
2022/04/19 02:43:41;;;;;;;12.85;10.65;;;;;;;10.04;62.92;101573.00;5025245;28;20070;-80
2022/04/19 02:46:07;;;;;;;14.52;11.50;;;;;;;10.02;62.77;101567.81;5058552;28;20073;-80
2022/04/19 02:48:33;;;;;;;17.02;11.45;;;;;;;10.01;62.49;101579.19;5041761;28;20033;-82
2022/04/19 02:51:00;;;;;;;14.63;12.00;;;;;;;10.01;63.24;101583.56;5066293;28;20063;-82
2022/04/19 02:53:26;;;;;;;13.75;11.82;;;;;;;9.99;63.27;101578.38;5056434;28;20187;-82
2022/04/19 02:55:51;;;;;;;14.63;11.52;;;;;;;9.97;63.23;101577.56;5058537;28;20213;-82
2022/04/19 02:58:17;;;;;;;12.98;11.63;;;;;;;9.97;63.50;101577.56;5058410;28;20336;-82
2022/04/19 03:00:43;;;;;;;16.30;12.35;;;;;;;9.96;63.33;101573.22;5058501;28;20040;-82
2022/04/19 03:03:09;;;;;;;14.05;11.43;;;;;;;9.94;63.59;101569.78;5058638;28;20027;-82
2022/04/19 03:05:38;;;;;;;16.58;11.82;;;;;;;9.93;63.44;101568.94;5057897;28;20143;-82
2022/04/19 03:08:03;;;;;;;;;;;;;;;9.92;63.70;101579.44;5043347;28;20355;-82
2022/04/19 03:10:28;;;;;;;14.23;12.30;;;;;;;9.90;63.87;101573.38;5075946;28;19920;-82
2022/04/19 03:12:54;;;;;;;14.77;12.52;;;;;;;9.88;63.95;101569.97;5075924;28;20385;-82
2022/04/19 03:15:20;;;;;;;14.68;11.95;;;;;;;9.87;63.88;101565.59;5051427;28;20043;-82
2022/04/19 03:17:45;;;;;;;15.27;12.23;;;;;;;9.85;64.20;101570.03;5048234;28;20235;-82
2022/04/19 03:20:11;;;;;;;16.13;12.60;;;;;;;9.83;64.38;101572.69;5041682;28;20107;-82
2022/04/19 03:28:05;;;;;;;15.05;12.48;;;;;;;9.76;64.60;101576.34;5080182;28;20378;-82
2022/04/19 03:30:30;;;;;;;16.30;12.45;;;;;;;9.72;64.81;101565.09;5061988;28;20485;-82
2022/04/19 03:32:56;;;;;;;14.05;12.50;;;;;;;9.70;64.81;101569.53;5054681;28;20222;-82
2022/04/19 03:35:21;;;;;;;14.50;12.32;;;;;;;9.69;65.00;101573.00;5059535;28;20068;-82
2022/04/19 03:37:47;;;;;;;15.13;12.50;;;;;;;9.67;65.03;101572.19;5054870;28;20055;-82
2022/04/19 03:40:13;;;;;;;15.85;11.80;;;;;;;9.65;65.23;101563.53;5076617;28;20383;-82
2022/04/19 03:42:42;;;;;;;15.02;11.88;;;;;;;9.61;65.40;101560.13;5045628;28;20037;-82
2022/04/19 03:45:09;;;;;;;14.95;12.55;;;;;;;9.61;65.19;101567.13;5080148;28;20075;-82
2022/04/19 03:47:35;;;;;;;17.17;12.25;;;;;;;9.58;65.17;101562.81;5044970;28;20068;-82
2022/04/19 03:50:01;;;;;;;15.32;12.27;;;;;;;9.57;65.52;101561.13;5079569;28;20049;-82
2022/04/19 03:52:27;;;;;;;16.13;12.55;;;;;;;9.57;65.50;101562.88;5070728;28;20024;-82
2022/04/19 03:54:52;;;;;;;16.67;13.60;;;;;;;9.55;65.65;101562.03;5061575;28;20040;-82
2022/04/19 03:57:18;;;;;;;15.27;12.65;;;;;;;9.53;65.68;101561.22;5061302;28;20201;-82
2022/04/19 03:59:44;;;;;;;14.90;12.27;;;;;;;9.53;65.56;101566.44;5061459;28;20386;-82
2022/04/19 04:02:10;;;;;;;15.63;12.23;;;;;;;9.52;65.49;101564.75;5069682;28;20119;-82
2022/04/19 04:04:36;;;;;;;20.90;13.00;;;;;;;9.50;65.51;101566.56;5074816;28;20029;-82
2022/04/19 04:07:03;;;;;;;19.10;13.02;;;;;;;9.48;65.41;101569.19;5072696;28;20359;-82
2022/04/19 04:09:37;;;;;;;16.33;13.00;;;;;;;9.48;65.66;101566.59;5068802;28;20040;-82
2022/04/19 04:12:05;;;;;;;16.92;13.48;;;;;;;9.46;65.71;101571.00;5079327;28;20393;-82
2022/04/19 04:14:31;;;;;;;15.45;12.23;;;;;;;9.44;66.04;101559.72;5044688;28;20067;-82
2022/04/19 04:16:57;;;;;;;15.93;12.35;;;;;;;9.41;65.92;101560.63;5061239;28;20348;-82
2022/04/19 04:19:23;;;;;;;15.00;12.63;;;;;;;9.41;66.10;101562.41;5063559;28;20082;-82
2022/04/19 04:21:48;;;;;;;17.95;13.25;;;;;;;9.39;65.92;101557.19;5076245;28;20227;-82
2022/04/19 04:24:13;;;;;;;15.10;12.43;;;;;;;9.38;65.81;101558.09;5049064;28;20105;-82
2022/04/19 04:26:39;;;;;;;17.70;13.10;;;;;;;9.36;66.02;101567.72;5052758;28;20051;-82
2022/04/19 04:29:04;;;;;;;15.73;12.88;;;;;;;9.35;66.17;101566.03;5026058;28;20243;-82
2022/04/19 04:31:30;;;;;;;16.65;13.15;;;;;;;9.33;66.00;101559.09;5041750;28;20040;-82
2022/04/19 04:33:55;;;;;;;17.30;13.27;;;;;;;9.32;66.25;101562.63;5058139;28;20037;-82
2022/04/19 04:36:20;;;;;;;17.10;13.00;;;;;;;9.30;66.22;101569.66;5042055;28;20040;-82
2022/04/19 04:38:46;;;;;;;17.63;12.60;;;;;;;9.28;66.15;101568.78;5076943;28;20130;-82
2022/04/19 04:41:12;;;;;;;15.82;12.57;;;;;;;9.26;66.39;101579.31;5076740;28;20037;-82
2022/04/19 04:43:39;;;;;;;17.13;11.88;;;;;;;9.26;66.57;101573.19;5042771;28;20036;-81
2022/04/19 04:51:33;;;;;;;16.95;13.40;;;;;;;9.21;66.12;101579.41;5060415;28;20052;-82
2022/04/19 04:53:59;;;;;;;18.85;13.45;;;;;;;9.18;66.40;101576.00;5076751;28;20032;-82
2022/04/19 04:56:25;;;;;;;16.75;13.32;;;;;;;9.16;66.58;101581.25;5076735;28;20240;-82
2022/04/19 04:58:51;;;;;;;15.90;12.73;;;;;;;9.15;66.49;101584.78;5025733;28;20040;-82
2022/04/19 05:01:16;;;;;;;17.42;13.10;;;;;;;9.13;66.62;101578.75;5056484;28;20109;-82
2022/04/19 05:03:42;;;;;;;17.77;13.32;;;;;;;9.13;66.49;101581.34;5075952;28;20111;-82
2022/04/19 05:06:07;;;;;;;16.80;13.38;;;;;;;9.13;66.42;101583.06;5040286;28;20282;-82
2022/04/19 05:08:32;;;;;;;20.48;13.65;;;;;;;9.13;66.59;101580.47;5041973;28;20406;-82
2022/04/19 05:10:58;;;;;;;20.95;13.55;;;;;;;9.12;66.30;101584.84;5076584;28;20100;-82
2022/04/19 05:13:23;;;;;;;18.65;13.00;;;;;;;9.14;66.15;101583.06;5075402;28;20067;-82
2022/04/19 05:15:49;;;;;;;16.05;12.85;;;;;;;9.14;66.22;101582.19;5052184;28;20083;-82
2022/04/19 05:18:17;;;;;;;20.00;13.57;;;;;;;9.14;66.16;101582.19;5030713;28;20100;-82
2022/04/19 05:20:43;;;;;;;17.85;12.93;;;;;;;9.13;66.45;101594.41;5057924;28;20055;-82
2022/04/19 05:23:09;;;;;;;17.27;12.48;;;;;;;9.14;66.64;101593.50;5050776;28;20028;-82
2022/04/19 05:25:34;;;;;;;19.38;12.60;;;;;;;9.14;66.65;101596.13;5057550;28;20062;-82
2022/04/19 05:28:00;;;;;;;15.68;12.00;;;;;;;9.14;66.79;101585.66;5057966;28;20081;-82
2022/04/19 05:30:25;;;;;;;17.75;12.35;;;;;;;9.15;66.46;101589.13;5040964;28;20040;-83
2022/04/19 05:32:50;;;;;;;18.33;12.85;;;;;;;9.14;66.57;101588.28;5049857;28;20310;-82
2022/04/19 05:35:16;;;;;;;16.92;12.88;;;;;;;9.16;66.52;101590.84;5048893;28;20060;-82
2022/04/19 05:37:41;;;;;;;18.52;12.18;;;;;;;9.16;66.37;101586.47;5040658;28;20035;-82
2022/04/19 05:40:07;;;;;;;15.45;12.55;;;;;;;9.19;66.32;101588.19;5070931;28;20147;-82
2022/04/19 05:42:33;;;;;;;17.80;13.45;;;;;;;9.20;66.31;101590.78;5058882;28;20115;-82
2022/04/19 05:44:58;;;;;;;17.65;12.95;;;;;;;9.21;66.21;101591.63;5063122;28;20041;-82
2022/04/19 05:47:24;;;;;;;13.82;11.80;;;;;;;9.21;66.22;101591.63;5057425;28;20035;-82
2022/04/19 05:49:49;;;;;;;12.77;10.80;;;;;;;9.22;66.23;101593.31;5074737;28;20083;-82
2022/04/19 05:52:15;;;;;;;15.63;12.02;;;;;;;9.23;66.23;101595.91;5074886;28;20306;-82
2022/04/19 05:54:40;;;;;;;13.82;11.80;;;;;;;9.24;66.35;101594.19;5075838;28;20071;-82
2022/04/19 05:57:05;;;;;;;12.60;10.75;;;;;;;9.26;66.03;101597.59;5062852;28;20329;-82
2022/04/19 05:59:31;;;;;;;16.13;11.68;;;;;;;9.26;66.29;101595.00;5057064;28;20040;-82
2022/04/19 06:04:53;;;;;;;16.02;13.40;;;;;;;9.28;67.56;101598.44;5075766;28;20039;-82
2022/04/19 06:07:26;;;;;;;17.58;13.20;;;;;;;9.31;68.20;101602.72;5067474;28;20355;-82
2022/04/19 06:09:51;;;;;;;18.00;13.05;;;;;;;9.32;68.76;101607.06;5059539;28;20028;-82
2022/04/19 06:12:17;;;;;;;28.92;15.05;;;;;;;9.32;70.27;101601.84;5074318;28;20063;-82
2022/04/19 06:14:43;;;;;;;21.77;14.60;;;;;;;9.33;70.97;101609.66;5074838;28;20320;-82
2022/04/19 06:17:14;;;;;;;20.85;14.27;;;;;;;9.33;71.68;101617.47;5075179;28;20046;-82
2022/04/19 06:19:40;;;;;;;16.63;13.60;;;;;;;9.33;72.08;101608.75;5074967;28;20025;-82
2022/04/19 06:22:05;;;;;;;18.60;13.95;;;;;;;9.34;72.29;101611.34;5073968;28;20032;-82
2022/04/19 06:24:30;;;;;;;20.27;14.05;;;;;;;9.33;72.73;101607.03;5059970;28;20078;-82
2022/04/19 06:26:56;;;;;;;17.45;13.35;;;;;;;9.37;72.37;101613.91;5046813;28;20032;-82
2022/04/19 06:29:21;;;;;;;16.42;13.38;;;;;;;9.40;72.20;101612.94;5064878;28;20225;-82
2022/04/19 06:31:47;;;;;;;16.35;13.07;;;;;;;9.42;71.82;101616.38;5073967;28;20367;-82
2022/04/19 06:34:13;;;;;;;16.73;12.70;;;;;;;9.44;71.99;101617.25;5053648;28;20045;-82
2022/04/19 06:36:38;;;;;;;16.63;11.73;;;;;;;9.48;71.82;101615.38;5051412;28;20095;-82
2022/04/19 06:39:04;;;;;;;15.73;11.55;;;;;;;9.50;71.61;101624.94;5052517;28;20343;-81
2022/04/19 06:41:29;;;;;;;15.52;12.50;;;;;;;9.54;71.28;101612.63;5064505;28;20396;-81
2022/04/19 06:43:58;;;;;;;14.15;10.25;;;;;;;9.58;71.22;101622.97;5053759;28;20310;-81
2022/04/19 06:46:25;;;;;;;15.57;10.95;;;;;;;9.60;70.91;101623.81;5038735;28;20363;-81
2022/04/19 06:48:54;;;;;;;19.27;11.20;;;;;;;9.64;70.53;101616.75;5075132;28;20275;-84
2022/04/19 06:51:20;;;;;;;17.25;12.30;;;;;;;9.68;70.42;101622.75;5050626;28;20328;-84
2022/04/19 06:53:45;;;;;;;13.65;10.32;;;;;;;9.72;70.29;101622.66;5051263;28;20263;-81
2022/04/19 06:56:11;;;;;;;19.35;11.30;;;;;;;9.77;69.97;101626.00;5054661;28;20139;-81
2022/04/19 06:58:36;;;;;;;15.18;11.75;;;;;;;9.80;69.40;101628.56;5051060;28;20147;-81
2022/04/19 07:01:02;;;;;;;17.80;11.80;;;;;;;9.83;69.30;101635.47;5065202;28;20044;-81
2022/04/19 07:03:27;;;;;;;41.92;12.70;;;;;;;9.88;68.97;101630.97;5049166;28;20029;-81
2022/04/19 07:05:53;;;;;;;11.35;10.13;;;;;;;9.93;68.96;101643.94;5056170;28;20063;-81
2022/04/19 07:08:18;;;;;;;18.60;10.52;;;;;;;9.96;68.66;101636.00;5060144;28;20363;-82
2022/04/19 07:10:46;;;;;;;16.33;10.93;;;;;;;10.01;68.32;101639.38;5071249;28;20233;-85
2022/04/19 07:13:11;;;;;;;16.00;11.63;;;;;;;10.05;67.36;101637.53;5057797;28;20302;-81
2022/04/19 07:15:37;;;;;;;11.73;10.05;;;;;;;10.13;67.17;101638.19;5049096;28;20071;-81
2022/04/19 07:18:02;;;;;;;15.07;10.07;;;;;;;10.18;67.08;101639.78;5070650;28;20040;-81
2022/04/19 07:28:39;;;;;;;10.48;8.75;;;;;;;10.54;65.26;101641.50;5042713;28;20271;-81
2022/04/19 07:31:08;;;;;;;18.55;9.45;;;;;;;10.60;65.16;101643.09;5047940;28;20068;-82
2022/04/19 07:33:38;;;;;;;12.55;9.80;;;;;;;10.66;64.69;101648.13;5069451;28;20051;-81
2022/04/19 07:36:07;;;;;;;14.02;9.82;;;;;;;10.73;64.23;101644.44;5052890;28;20091;-81
2022/04/19 07:38:33;;;;;;;11.00;9.73;;;;;;;10.76;64.25;101637.34;5067044;28;20049;-82
2022/04/19 07:40:59;;;;;;;10.10;8.40;;;;;;;10.83;64.08;101639.81;5071327;28;20043;-82
2022/04/19 07:43:24;;;;;;;11.85;8.85;;;;;;;10.88;63.63;101640.56;5059468;28;20040;-82
2022/04/19 07:45:50;;;;;;;12.10;8.93;;;;;;;10.90;63.58;101638.75;5062856;28;20085;-82
2022/04/19 07:48:15;;;;;;;10.05;8.15;;;;;;;10.91;63.29;101638.69;5050239;28;20085;-82
2022/04/19 07:50:42;;;;;;;11.88;8.60;;;;;;;10.96;63.09;101643.78;5057481;28;20044;-82
2022/04/19 07:53:08;;;;;;;12.73;7.93;;;;;;;11.00;62.99;101639.31;5053639;28;20335;-82
2022/04/19 07:55:33;;;;;;;10.82;8.85;;;;;;;11.01;62.42;101638.44;5054299;28;20102;-82
2022/04/19 07:57:59;;;;;;;10.23;8.20;;;;;;;11.05;62.20;101638.28;5060025;28;20043;-82
2022/04/19 08:00:27;;;;;;;11.80;8.88;;;;;;;11.10;61.53;101636.38;5059473;28;20047;-82
2022/04/19 08:02:55;;;;;;;9.68;8.45;;;;;;;11.18;60.82;101636.13;5056508;28;20237;-82
2022/04/19 08:05:21;;;;;;;14.20;8.50;;;;;;;11.24;60.62;101641.22;5043932;28;20228;-82
2022/04/19 08:07:48;;;;;;;10.77;7.32;;;;;;;11.32;60.27;101641.81;5056430;28;20043;-82
2022/04/19 08:10:14;;;;;;;11.75;7.20;;;;;;;11.44;59.38;101634.47;5049919;28;20118;-82
2022/04/19 08:12:40;;;;;;;9.45;7.03;;;;;;;11.55;58.22;101635.00;5063462;28;20032;-82
2022/04/19 08:15:05;;;;;;;8.77;7.40;;;;;;;11.66;57.97;101638.13;5073999;28;20839;-82
2022/04/19 08:17:34;;;;;;;10.40;7.22;;;;;;;11.75;57.90;101638.72;5075149;28;20040;-82
2022/04/19 08:20:01;;;;;;;;;;;;;;;11.86;57.69;101641.84;5072811;28;20028;-82
2022/04/19 08:22:27;;;;;;;9.18;6.68;;;;;;;11.99;57.17;101635.34;5074664;28;20037;-82
2022/04/19 08:24:53;;;;;;;10.05;6.80;;;;;;;12.05;57.41;101635.13;5060315;28;20049;-82
2022/04/19 08:27:18;;;;;;;11.20;6.72;;;;;;;12.17;57.03;101636.47;5057228;28;20032;-82
2022/04/19 08:29:44;;;;;;;9.35;6.80;;;;;;;12.29;56.58;101636.03;5060071;28;20044;-82
2022/04/19 08:32:10;;;;;;;7.63;6.25;;;;;;;12.35;56.40;101629.72;5076445;28;20044;-82
2022/04/19 08:34:35;;;;;;;12.05;5.78;;;;;;;12.41;56.21;101639.16;5076920;28;20375;-82
2022/04/19 08:37:02;;;;;;;9.32;6.15;;;;;;;12.45;55.83;101638.97;5059204;28;20119;-82
2022/04/19 08:39:28;;;;;;;8.23;5.90;;;;;;;12.54;55.69;101636.94;5059332;28;20040;-82
2022/04/19 08:41:53;;;;;;;8.55;5.07;;;;;;;12.59;55.67;101635.00;5038939;28;20038;-82
2022/04/19 08:44:19;;;;;;;5.25;4.75;;;;;;;12.66;55.48;101647.00;5052245;28;20097;-82
2022/04/19 08:46:45;;;;;;;4.97;4.47;;;;;;;12.70;55.36;101643.34;5040410;28;20090;-82
2022/04/19 08:49:11;;;;;;;4.40;4.00;;;;;;;12.80;55.20;101643.88;5058558;28;20032;-82
2022/04/19 08:51:39;;;;;;;9.15;4.72;;;;;;;12.90;55.01;101639.97;5074821;28;20060;-82
2022/04/19 08:59:33;;;;;;;5.65;4.25;;;;;;;13.12;55.00;101636.53;5074066;28;20108;-82
2022/04/19 09:02:00;;;;;;;6.60;5.07;;;;;;;13.19;54.17;101632.75;5050586;28;20021;-82
2022/04/19 09:04:25;;;;;;;6.15;4.97;;;;;;;13.29;53.64;101635.88;5069398;28;20032;-82
2022/04/19 09:06:58;;;;;;;6.70;5.10;;;;;;;13.38;53.51;101635.53;5077868;28;20059;-82
2022/04/19 09:09:29;;;;;;;5.93;4.82;;;;;;;13.46;53.04;101632.59;5059064;28;20255;-82
2022/04/19 09:12:07;;;;;;;17.70;5.38;;;;;;;13.53;53.33;101632.28;5077962;28;20063;-82
2022/04/19 09:14:33;;;;;;;8.07;5.10;;;;;;;13.55;53.66;101635.72;5076845;28;20064;-82
2022/04/19 09:17:04;;;;;;;13.90;5.60;;;;;;;13.63;53.97;101630.16;5058985;28;20094;-82
2022/04/19 09:19:30;;;;;;;6.57;4.82;;;;;;;13.71;52.48;101629.84;5076382;28;20036;-82
2022/04/19 09:21:55;;;;;;;5.43;4.75;;;;;;;13.78;52.90;101626.03;5059822;28;20147;-82
2022/04/19 09:24:22;;;;;;;4.90;4.40;;;;;;;13.87;51.95;101630.91;5076976;28;20032;-82
2022/04/19 09:26:48;;;;;;;12.18;4.35;;;;;;;13.91;51.91;101624.59;5075237;28;20251;-82
2022/04/19 09:29:22;;;;;;;4.97;4.40;;;;;;;13.98;51.68;101628.66;5050658;28;20027;-82
2022/04/19 09:31:50;;;;;;;4.97;4.35;;;;;;;14.01;52.54;101622.44;5047468;28;20108;-82
2022/04/19 09:34:29;;;;;;;4.97;4.00;;;;;;;14.01;52.24;101625.91;5076885;28;20210;-82
2022/04/19 09:37:11;;;;;;;7.18;3.80;;;;;;;14.05;52.27;101617.91;5052563;28;20048;-82
2022/04/19 09:39:41;;;;;;;4.82;4.25;;;;;;;14.12;51.84;101619.34;5053621;28;20051;-82
2022/04/19 09:42:16;;;;;;;6.45;5.25;;;;;;;14.15;51.54;101614.81;5070738;28;20071;-83
2022/04/19 09:44:43;;;;;;;4.72;3.95;;;;;;;14.18;51.52;101617.28;5056051;28;20047;-83
2022/04/19 09:47:13;;;;;;;6.75;3.75;;;;;;;14.23;51.09;101614.47;5053271;28;20241;-83
2022/04/19 09:49:53;;;;;;;4.60;4.15;;;;;;;14.28;51.06;101608.97;5039796;28;20548;-83
2022/04/19 09:52:21;;;;;;;6.85;4.07;;;;;;;14.32;49.97;101613.22;5070743;28;20064;-83
2022/04/19 09:55:08;;;;;;;5.03;4.25;;;;;;;14.36;49.67;101612.16;5076621;28;20059;-83
2022/04/19 09:57:38;;;;;;;6.13;4.72;;;;;;;14.37;49.25;101619.09;5073613;28;20047;-83
2022/04/19 10:00:09;;;;;;;5.68;4.32;;;;;;;14.38;49.83;101608.50;5066459;28;20044;-83
2022/04/19 10:08:19;;;;;;;10.20;5.40;;;;;;;14.40;50.13;101603.16;5064129;28;20063;-83
2022/04/19 10:10:47;;;;;;;10.60;4.80;;;;;;;14.47;50.02;101609.03;5043669;28;20029;-83
2022/04/19 10:13:13;;;;;;;7.28;4.88;;;;;;;14.50;49.89;101604.47;5063604;28;20040;-83
2022/04/19 10:15:40;;;;;;;10.02;4.93;;;;;;;14.53;50.45;101608.75;5074483;28;20078;-83
2022/04/19 10:18:07;;;;;;;7.47;4.53;;;;;;;14.59;50.11;101605.88;5076934;28;20047;-83
2022/04/19 10:20:36;;;;;;;5.28;4.78;;;;;;;14.63;50.47;101604.81;5076371;28;20302;-83
2022/04/19 10:23:05;;;;;;;5.45;4.50;;;;;;;14.68;50.13;101607.22;5077247;28;20091;-83
2022/04/19 10:25:40;;;;;;;5.95;5.25;;;;;;;14.73;48.59;101608.72;5057431;28;20036;-83
2022/04/19 10:28:11;;;;;;;6.15;5.03;;;;;;;14.81;48.50;101611.03;5040848;28;20044;-83
2022/04/19 10:30:37;;;;;;;9.10;4.43;;;;;;;14.86;48.87;101603.75;5070136;28;20233;-83
2022/04/19 10:33:40;;;;;;;8.43;5.22;;;;;;;14.99;48.27;101609.31;5071651;28;20028;-83
2022/04/19 10:36:14;;;;;;;5.40;4.85;;;;;;;15.10;47.24;101614.94;5068798;28;20059;-83
2022/04/19 10:38:40;;;;;;;7.05;4.80;;;;;;;15.18;46.94;101608.44;5076343;28;20331;-83
2022/04/19 10:41:06;;;;;;;7.78;4.97;;;;;;;15.26;44.83;101606.28;5052752;28;20332;-83
2022/04/19 10:43:31;;;;;;;5.18;4.68;;;;;;;15.29;45.67;101606.13;5068981;28;20036;-83
2022/04/19 10:46:19;;;;;;;6.65;4.90;;;;;;;15.33;45.77;101600.66;5063984;28;20044;-83
2022/04/19 10:49:22;;;;;;;6.75;4.90;;;;;;;15.35;47.33;101601.44;5071669;28;20039;-83
2022/04/19 10:55:08;;;;;;;8.20;5.50;;;;;;;15.49;45.66;101607.81;5065385;28;20048;-83
2022/04/19 10:58:07;;;;;;;8.35;5.63;;;;;;;15.52;44.38;101603.22;5069325;28;20039;-82
2022/04/19 11:00:38;;;;;;;8.02;5.60;;;;;;;15.52;45.10;101602.38;5071030;28;20141;-83
2022/04/19 11:03:20;;;;;;;9.27;6.70;;;;;;;15.51;44.90;101590.94;5073056;28;20095;-83
2022/04/19 11:05:55;;;;;;;6.72;5.75;;;;;;;15.58;44.84;101596.78;5075206;28;20142;-83
2022/04/19 11:08:21;;;;;;;7.57;5.43;;;;;;;15.62;44.97;101603.63;5074244;28;20217;-83
2022/04/19 11:10:50;;;;;;;10.15;5.50;;;;;;;15.65;44.50;101605.28;5071911;28;20032;-83
2022/04/19 11:13:16;;;;;;;6.85;6.03;;;;;;;15.67;44.88;101606.03;5053683;28;20255;-83
2022/04/19 11:15:42;;;;;;;6.60;5.75;;;;;;;15.70;43.80;101596.19;5073855;28;20064;-83
2022/04/19 11:18:27;;;;;;;10.45;5.78;;;;;;;15.74;44.99;101599.56;5048977;28;20056;-83
2022/04/19 11:20:56;;;;;;;16.88;6.32;;;;;;;15.76;45.66;101596.84;5074462;28;20112;-83
2022/04/19 11:23:26;;;;;;;10.88;6.18;;;;;;;15.83;45.18;101599.09;5070292;28;20107;-83
2022/04/19 11:25:53;;;;;;;10.27;6.20;;;;;;;15.88;44.27;101593.56;5066094;28;20047;-83
2022/04/19 11:28:19;;;;;;;11.45;6.20;;;;;;;15.90;44.64;101597.00;5071840;28;20085;-83
2022/04/19 11:31:04;;;;;;;8.85;6.03;;;;;;;15.96;43.98;101598.47;5074129;28;20055;-83
2022/04/19 11:33:34;;;;;;;14.48;5.68;;;;;;;15.96;43.71;101591.41;5072216;28;20067;-83
2022/04/19 11:36:09;;;;;;;11.98;6.03;;;;;;;15.96;44.82;101590.53;5073332;28;20044;-83
2022/04/19 11:38:48;;;;;;;6.97;5.45;;;;;;;15.98;45.19;101586.03;5054906;28;20075;-83
2022/04/19 11:46:55;;;;;;;9.07;6.18;;;;;;;16.05;44.58;101585.63;5077958;28;20043;-83
2022/04/19 11:49:27;;;;;;;8.15;6.28;;;;;;;16.14;44.32;101580.81;5066901;28;20244;-82
2022/04/19 11:51:55;;;;;;;8.73;5.95;;;;;;;16.16;44.42;101577.16;5059261;28;20043;-83
2022/04/19 11:54:26;;;;;;;9.15;6.38;;;;;;;16.18;44.97;101575.28;5056906;28;20032;-83
2022/04/19 11:56:53;;;;;;;8.68;6.35;;;;;;;16.22;44.89;101568.88;5077423;28;20036;-83
2022/04/19 11:59:44;;;;;;;11.43;7.35;;;;;;;16.23;45.05;101572.41;5054921;28;20086;-83
2022/04/19 12:02:18;;;;;;;12.07;7.63;;;;;;;16.24;42.49;101563.53;5049886;28;20033;-83
2022/04/19 12:04:59;;;;;;;13.23;6.90;;;;;;;16.26;44.36;101570.47;5069981;28;20232;-83
2022/04/19 12:07:25;;;;;;;9.98;6.35;;;;;;;16.32;43.90;101566.63;5053427;28;20033;-83
2022/04/19 12:09:51;;;;;;;12.68;6.38;;;;;;;16.39;43.70;101568.00;5053887;28;20136;-83